sensor_id;sensor_type;location;lat;lon;timestamp;pressure;altitude;pressure_sealevel;temperature;humidity
55466;BME280;41329;41.594;23.810;2023-05-24T00:01:14;95063.81;;;15.75;66.65
55466;BME280;41329;41.594;23.810;2023-05-24T00:03:41;95085.59;;;15.90;67.09
55466;BME280;41329;41.594;23.810;2023-05-24T00:06:07;95072.09;;;15.85;67.30
55466;BME280;41329;41.594;23.810;2023-05-24T00:08:33;95084.38;;;15.95;67.30
55466;BME280;41329;41.594;23.810;2023-05-24T00:10:59;95056.63;;;15.77;66.91
55466;BME280;41329;41.594;23.810;2023-05-24T00:13:24;95087.53;;;15.97;66.19
55466;BME280;41329;41.594;23.810;2023-05-24T00:15:50;95081.56;;;15.98;65.42
55466;BME280;41329;41.594;23.810;2023-05-24T00:18:15;95070.13;;;15.86;64.82
55466;BME280;41329;41.594;23.810;2023-05-24T00:20:42;95061.44;;;15.73;64.43
55466;BME280;41329;41.594;23.810;2023-05-24T00:23:08;95079.31;;;15.83;64.63
55466;BME280;41329;41.594;23.810;2023-05-24T00:25:34;95063.09;;;15.64;64.71
55466;BME280;41329;41.594;23.810;2023-05-24T00:27:59;95075.03;;;15.71;64.80
55466;BME280;41329;41.594;23.810;2023-05-24T00:30:24;95078.59;;;15.72;64.77
55466;BME280;41329;41.594;23.810;2023-05-24T00:32:50;95066.75;;;15.61;64.50
55466;BME280;41329;41.594;23.810;2023-05-24T00:35:15;95084.25;;;15.65;64.52
55466;BME280;41329;41.594;23.810;2023-05-24T00:37:41;95073.53;;;15.56;64.65
55466;BME280;41329;41.594;23.810;2023-05-24T00:40:12;95056.09;;;15.42;64.78
55466;BME280;41329;41.594;23.810;2023-05-24T00:42:37;95049.75;;;15.38;64.75
55466;BME280;41329;41.594;23.810;2023-05-24T00:45:03;95065.66;;;15.48;64.71
55466;BME280;41329;41.594;23.810;2023-05-24T00:47:28;95064.50;;;15.38;64.81
55466;BME280;41329;41.594;23.810;2023-05-24T00:49:54;95012.53;;;15.04;64.90
55466;BME280;41329;41.594;23.810;2023-05-24T00:52:20;95062.94;;;15.27;65.09
55466;BME280;41329;41.594;23.810;2023-05-24T00:54:45;95087.22;;;15.30;64.55
55466;BME280;41329;41.594;23.810;2023-05-24T00:57:11;95078.53;;;15.21;64.34
55466;BME280;41329;41.594;23.810;2023-05-24T00:59:40;95082.19;;;15.04;64.90
55466;BME280;41329;41.594;23.810;2023-05-24T01:02:05;95084.19;;;15.03;65.86
55466;BME280;41329;41.594;23.810;2023-05-24T01:04:31;95080.22;;;15.01;66.23
55466;BME280;41329;41.594;23.810;2023-05-24T01:07:23;95085.81;;;14.97;66.10
55466;BME280;41329;41.594;23.810;2023-05-24T01:10:08;95082.28;;;14.90;66.18
55466;BME280;41329;41.594;23.810;2023-05-24T01:13:03;95048.94;;;14.69;66.29
55466;BME280;41329;41.594;23.810;2023-05-24T01:18:15;95069.56;;;14.82;67.09
55466;BME280;41329;41.594;23.810;2023-05-24T01:20:42;95043.00;;;14.63;67.05
55466;BME280;41329;41.594;23.810;2023-05-24T01:28:46;95062.44;;;14.74;67.44
55466;BME280;41329;41.594;23.810;2023-05-24T01:31:13;95066.81;;;14.75;67.15
55466;BME280;41329;41.594;23.810;2023-05-24T01:33:42;95073.97;;;14.76;66.87
55466;BME280;41329;41.594;23.810;2023-05-24T01:36:08;95075.97;;;14.72;66.68
55466;BME280;41329;41.594;23.810;2023-05-24T01:38:33;95073.59;;;14.67;66.51
55466;BME280;41329;41.594;23.810;2023-05-24T01:41:22;95055.38;;;14.52;66.14
55466;BME280;41329;41.594;23.810;2023-05-24T01:44:04;95074.03;;;14.62;65.95
55466;BME280;41329;41.594;23.810;2023-05-24T01:46:37;95071.28;;;14.58;66.36
55466;BME280;41329;41.594;23.810;2023-05-24T01:49:20;95072.88;;;14.52;66.48
55466;BME280;41329;41.594;23.810;2023-05-24T01:52:33;95069.69;;;14.47;66.96
55466;BME280;41329;41.594;23.810;2023-05-24T01:54:36;95075.25;;;14.47;67.08
55466;BME280;41329;41.594;23.810;2023-05-24T01:57:06;95030.00;;;14.22;67.23
55466;BME280;41329;41.594;23.810;2023-05-24T01:59:32;95080.44;;;14.48;67.34
55466;BME280;41329;41.594;23.810;2023-05-24T02:01:59;95064.16;;;14.43;67.32
55466;BME280;41329;41.594;23.810;2023-05-24T02:04:24;95077.25;;;14.50;66.88
55466;BME280;41329;41.594;23.810;2023-05-24T02:06:50;95039.94;;;14.26;66.89
55466;BME280;41329;41.594;23.810;2023-05-24T02:09:15;95056.25;;;14.28;66.97
55466;BME280;41329;41.594;23.810;2023-05-24T02:11:41;95076.09;;;14.44;67.22
55466;BME280;41329;41.594;23.810;2023-05-24T02:14:06;95094.75;;;14.50;66.97
55466;BME280;41329;41.594;23.810;2023-05-24T02:16:31;95075.69;;;14.38;66.47
55466;BME280;41329;41.594;23.810;2023-05-24T02:18:57;95095.19;;;14.45;66.95
55466;BME280;41329;41.594;23.810;2023-05-24T02:21:23;95101.53;;;14.46;66.64
55466;BME280;41329;41.594;23.810;2023-05-24T02:23:49;95096.00;;;14.32;66.48
55466;BME280;41329;41.594;23.810;2023-05-24T02:26:15;95104.34;;;14.25;66.51
55466;BME280;41329;41.594;23.810;2023-05-24T02:28:42;95094.81;;;14.19;66.38
55466;BME280;41329;41.594;23.810;2023-05-24T02:31:07;95070.59;;;13.95;66.14
55466;BME280;41329;41.594;23.810;2023-05-24T02:33:33;95096.41;;;14.02;66.74
55466;BME280;41329;41.594;23.810;2023-05-24T02:35:59;95083.69;;;13.94;66.90
55466;BME280;41329;41.594;23.810;2023-05-24T02:38:25;95100.78;;;13.96;67.17
55466;BME280;41329;41.594;23.810;2023-05-24T02:40:51;95099.19;;;13.92;67.23
55466;BME280;41329;41.594;23.810;2023-05-24T02:43:16;95045.19;;;13.58;67.19
55466;BME280;41329;41.594;23.810;2023-05-24T02:45:41;95103.16;;;13.91;67.07
55466;BME280;41329;41.594;23.810;2023-05-24T02:48:07;95096.81;;;13.90;67.35
55466;BME280;41329;41.594;23.810;2023-05-24T02:50:32;95067.81;;;13.67;67.24
55466;BME280;41329;41.594;23.810;2023-05-24T02:52:58;95102.38;;;13.83;67.40
55466;BME280;41329;41.594;23.810;2023-05-24T02:55:23;95096.03;;;13.79;67.99
55466;BME280;41329;41.594;23.810;2023-05-24T02:57:49;95105.97;;;13.80;68.14
55466;BME280;41329;41.594;23.810;2023-05-24T03:00:15;95085.31;;;13.67;67.99
55466;BME280;41329;41.594;23.810;2023-05-24T03:02:43;95106.34;;;13.79;67.62
55466;BME280;41329;41.594;23.810;2023-05-24T03:05:08;95106.75;;;13.77;67.57
55466;BME280;41329;41.594;23.810;2023-05-24T03:07:34;95080.53;;;13.54;67.41
55466;BME280;41329;41.594;23.810;2023-05-24T03:09:59;95086.09;;;13.50;67.22
55466;BME280;41329;41.594;23.810;2023-05-24T03:12:25;95101.19;;;13.60;67.67
55466;BME280;41329;41.594;23.810;2023-05-24T03:14:50;95109.13;;;13.65;67.86
55466;BME280;41329;41.594;23.810;2023-05-24T03:17:16;95075.75;;;13.47;67.88
55466;BME280;41329;41.594;23.810;2023-05-24T03:19:41;95066.63;;;13.40;67.97
55466;BME280;41329;41.594;23.810;2023-05-24T03:22:06;95113.13;;;13.64;68.26
55466;BME280;41329;41.594;23.810;2023-05-24T03:24:32;95080.13;;;13.45;68.38
55466;BME280;41329;41.594;23.810;2023-05-24T03:26:58;95103.16;;;13.63;68.41
55466;BME280;41329;41.594;23.810;2023-05-24T03:29:23;95105.16;;;13.69;68.30
55466;BME280;41329;41.594;23.810;2023-05-24T03:31:49;95101.19;;;13.63;68.08
55466;BME280;41329;41.594;23.810;2023-05-24T03:34:14;95116.28;;;13.62;67.98
55466;BME280;41329;41.594;23.810;2023-05-24T03:36:40;95098.41;;;13.53;68.11
55466;BME280;41329;41.594;23.810;2023-05-24T03:39:06;95113.50;;;13.62;68.76
55466;BME280;41329;41.594;23.810;2023-05-24T03:41:31;95109.94;;;13.55;68.85
55466;BME280;41329;41.594;23.810;2023-05-24T03:43:57;95113.91;;;13.57;68.96
55466;BME280;41329;41.594;23.810;2023-05-24T03:46:22;95116.28;;;13.62;69.23
55466;BME280;41329;41.594;23.810;2023-05-24T03:48:48;95115.09;;;13.63;69.41
55466;BME280;41329;41.594;23.810;2023-05-24T03:51:13;95107.91;;;13.45;69.56
55466;BME280;41329;41.594;23.810;2023-05-24T03:53:39;95110.31;;;13.43;70.08
55466;BME280;41329;41.594;23.810;2023-05-24T03:56:04;95118.63;;;13.39;70.71
55466;BME280;41329;41.594;23.810;2023-05-24T03:58:30;95114.63;;;13.26;71.33
55466;BME280;41329;41.594;23.810;2023-05-24T04:00:55;95124.13;;;13.15;72.30
55466;BME280;41329;41.594;23.810;2023-05-24T04:03:21;95122.84;;;12.91;73.37
55466;BME280;41329;41.594;23.810;2023-05-24T04:05:46;95097.31;;;12.54;74.63
55466;BME280;41329;41.594;23.810;2023-05-24T04:08:12;95107.59;;;12.53;74.98
55466;BME280;41329;41.594;23.810;2023-05-24T04:10:39;95129.56;;;12.83;74.99
55466;BME280;41329;41.594;23.810;2023-05-24T04:13:04;95139.13;;;12.93;74.91
55466;BME280;41329;41.594;23.810;2023-05-24T04:15:30;95130.06;;;13.06;74.98
55466;BME280;41329;41.594;23.810;2023-05-24T04:17:55;95132.47;;;13.18;74.54
55466;BME280;41329;41.594;23.810;2023-05-24T04:20:21;95128.53;;;13.26;74.54
55466;BME280;41329;41.594;23.810;2023-05-24T04:22:49;95136.47;;;13.31;74.38
55466;BME280;41329;41.594;23.810;2023-05-24T04:25:15;95128.56;;;13.40;74.22
55466;BME280;41329;41.594;23.810;2023-05-24T04:27:40;95118.25;;;13.37;74.18
55466;BME280;41329;41.594;23.810;2023-05-24T04:30:06;95134.53;;;13.56;74.11
55466;BME280;41329;41.594;23.810;2023-05-24T04:32:33;95133.34;;;13.64;73.80
55466;BME280;41329;41.594;23.810;2023-05-24T04:34:59;95057.09;;;13.27;73.36
55466;BME280;41329;41.594;23.810;2023-05-24T04:37:26;95117.88;;;13.60;73.09
55466;BME280;41329;41.594;23.810;2023-05-24T04:39:53;95139.34;;;13.77;72.96
55466;BME280;41329;41.594;23.810;2023-05-24T04:42:19;95143.69;;;13.81;73.06
55466;BME280;41329;41.594;23.810;2023-05-24T04:44:44;95136.94;;;13.86;73.18
55466;BME280;41329;41.594;23.810;2023-05-24T04:47:09;95129.00;;;13.91;73.41
55466;BME280;41329;41.594;23.810;2023-05-24T04:49:37;95131.78;;;13.98;72.90
55466;BME280;41329;41.594;23.810;2023-05-24T04:52:02;95141.69;;;14.06;73.03
55466;BME280;41329;41.594;23.810;2023-05-24T04:54:28;95134.56;;;14.02;72.39
55466;BME280;41329;41.594;23.810;2023-05-24T04:56:53;95138.50;;;14.11;72.34
55466;BME280;41329;41.594;23.810;2023-05-24T04:59:19;95141.31;;;14.18;72.52
55466;BME280;41329;41.594;23.810;2023-05-24T05:01:44;95145.28;;;14.21;72.72
55466;BME280;41329;41.594;23.810;2023-05-24T05:04:10;95147.28;;;14.20;72.55
55466;BME280;41329;41.594;23.810;2023-05-24T05:06:35;95122.22;;;13.96;72.98
55466;BME280;41329;41.594;23.810;2023-05-24T05:09:05;95131.78;;;13.95;73.71
55466;BME280;41329;41.594;23.810;2023-05-24T05:11:33;95141.31;;;14.08;74.11
55466;BME280;41329;41.594;23.810;2023-05-24T05:13:59;95146.88;;;14.01;74.77
55466;BME280;41329;41.594;23.810;2023-05-24T05:16:24;95150.03;;;14.06;74.77
55466;BME280;41329;41.594;23.810;2023-05-24T05:18:49;95146.47;;;14.20;74.44
55466;BME280;41329;41.594;23.810;2023-05-24T05:21:15;95117.84;;;14.09;74.31
55466;BME280;41329;41.594;23.810;2023-05-24T05:23:40;95140.13;;;14.30;74.55
55466;BME280;41329;41.594;23.810;2023-05-24T05:26:06;95121.03;;;14.04;74.98
55466;BME280;41329;41.594;23.810;2023-05-24T05:28:31;95119.06;;;14.08;74.80
55466;BME280;41329;41.594;23.810;2023-05-24T05:30:57;95154.84;;;14.37;75.10
55466;BME280;41329;41.594;23.810;2023-05-24T05:33:22;95136.16;;;14.31;74.74
55466;BME280;41329;41.594;23.810;2023-05-24T05:35:48;95141.69;;;14.38;74.38
55466;BME280;41329;41.594;23.810;2023-05-24T05:38:13;95142.91;;;14.44;74.51
55466;BME280;41329;41.594;23.810;2023-05-24T05:40:39;95116.66;;;14.41;75.05
55466;BME280;41329;41.594;23.810;2023-05-24T05:43:04;95132.13;;;14.56;74.51
55466;BME280;41329;41.594;23.810;2023-05-24T05:45:30;95163.53;;;14.60;73.96
55466;BME280;41329;41.594;23.810;2023-05-24T05:47:55;95152.38;;;14.71;73.64
55466;BME280;41329;41.594;23.810;2023-05-24T05:50:20;95155.91;;;14.85;73.36
55466;BME280;41329;41.594;23.810;2023-05-24T05:52:46;95148.34;;;14.86;73.65
55466;BME280;41329;41.594;23.810;2023-05-24T05:55:11;95151.09;;;14.93;72.81
55466;BME280;41329;41.594;23.810;2023-05-24T05:57:36;95147.13;;;14.94;72.53
55466;BME280;41329;41.594;23.810;2023-05-24T06:00:02;95130.75;;;14.99;72.68
55466;BME280;41329;41.594;23.810;2023-05-24T06:02:28;95153.41;;;15.19;71.82
55466;BME280;41329;41.594;23.810;2023-05-24T06:04:53;95150.56;;;15.26;71.58
55466;BME280;41329;41.594;23.810;2023-05-24T06:07:19;95133.09;;;15.11;68.99
55466;BME280;41329;41.594;23.810;2023-05-24T06:09:44;95150.56;;;15.29;69.46
55466;BME280;41329;41.594;23.810;2023-05-24T06:12:09;95123.50;;;15.19;69.81
55466;BME280;41329;41.594;23.810;2023-05-24T06:14:35;95131.41;;;15.38;69.07
55466;BME280;41329;41.594;23.810;2023-05-24T06:17:04;95121.38;;;15.51;68.71
55466;BME280;41329;41.594;23.810;2023-05-24T06:19:29;95151.97;;;15.62;68.68
55466;BME280;41329;41.594;23.810;2023-05-24T06:21:55;95148.78;;;15.63;69.10
55466;BME280;41329;41.594;23.810;2023-05-24T06:24:21;95147.53;;;15.68;68.57
55466;BME280;41329;41.594;23.810;2023-05-24T06:26:51;95119.66;;;15.68;68.30
55466;BME280;41329;41.594;23.810;2023-05-24T06:29:17;95140.63;;;15.90;68.03
55466;BME280;41329;41.594;23.810;2023-05-24T06:31:44;95143.00;;;15.91;66.94
55466;BME280;41329;41.594;23.810;2023-05-24T06:34:12;95119.91;;;15.87;66.45
55466;BME280;41329;41.594;23.810;2023-05-24T06:36:37;95141.59;;;16.17;66.40
55466;BME280;41329;41.594;23.810;2023-05-24T06:39:10;95134.13;;;16.07;67.19
55466;BME280;41329;41.594;23.810;2023-05-24T06:41:35;95117.44;;;16.00;66.02
55466;BME280;41329;41.594;23.810;2023-05-24T06:44:01;95134.78;;;16.21;65.82
55466;BME280;41329;41.594;23.810;2023-05-24T06:46:27;95134.19;;;16.44;66.09
55466;BME280;41329;41.594;23.810;2023-05-24T06:48:52;95131.28;;;16.54;65.82
55466;BME280;41329;41.594;23.810;2023-05-24T06:51:18;95113.72;;;16.57;64.69
55466;BME280;41329;41.594;23.810;2023-05-24T06:53:43;95121.50;;;16.76;62.69
55466;BME280;41329;41.594;23.810;2023-05-24T06:56:09;95096.50;;;16.62;63.81
55466;BME280;41329;41.594;23.810;2023-05-24T06:58:34;95128.13;;;16.89;62.57
55466;BME280;41329;41.594;23.810;2023-05-24T07:01:00;95114.84;;;16.97;63.27
55466;BME280;41329;41.594;23.810;2023-05-24T07:03:26;95130.13;;;17.22;63.96
55466;BME280;41329;41.594;23.810;2023-05-24T07:05:52;95125.84;;;17.44;63.15
55466;BME280;41329;41.594;23.810;2023-05-24T07:08:17;95122.91;;;17.55;60.43
55466;BME280;41329;41.594;23.810;2023-05-24T07:10:43;95124.22;;;17.47;60.40
55466;BME280;41329;41.594;23.810;2023-05-24T07:13:09;95117.94;;;17.36;60.61
55466;BME280;41329;41.594;23.810;2023-05-24T07:15:39;95116.16;;;17.52;60.89
55466;BME280;41329;41.594;23.810;2023-05-24T07:18:05;95094.88;;;17.58;60.95
55466;BME280;41329;41.594;23.810;2023-05-24T07:20:31;95112.72;;;17.95;60.92
55466;BME280;41329;41.594;23.810;2023-05-24T07:22:56;95101.88;;;17.97;60.00
55466;BME280;41329;41.594;23.810;2023-05-24T07:25:22;95115.66;;;18.11;59.37
55466;BME280;41329;41.594;23.810;2023-05-24T07:27:49;95115.03;;;18.23;59.56
55466;BME280;41329;41.594;23.810;2023-05-24T07:30:15;95115.25;;;18.35;58.92
55466;BME280;41329;41.594;23.810;2023-05-24T07:32:42;95112.28;;;18.46;58.24
55466;BME280;41329;41.594;23.810;2023-05-24T07:35:09;95107.03;;;18.48;58.98
55466;BME280;41329;41.594;23.810;2023-05-24T07:37:37;95091.97;;;18.61;59.06
55466;BME280;41329;41.594;23.810;2023-05-24T07:40:02;95115.53;;;19.06;58.57
55466;BME280;41329;41.594;23.810;2023-05-24T07:42:29;95088.94;;;18.95;55.72
55466;BME280;41329;41.594;23.810;2023-05-24T07:44:55;95074.69;;;19.05;55.92
55466;BME280;41329;41.594;23.810;2023-05-24T07:47:21;95087.06;;;19.27;54.83
55466;BME280;41329;41.594;23.810;2023-05-24T07:49:46;95097.06;;;19.28;53.98
55466;BME280;41329;41.594;23.810;2023-05-24T07:52:11;95098.25;;;19.47;53.89
55466;BME280;41329;41.594;23.810;2023-05-24T07:54:39;95071.34;;;19.49;52.29
55466;BME280;41329;41.594;23.810;2023-05-24T07:57:05;95090.91;;;19.53;52.32
55466;BME280;41329;41.594;23.810;2023-05-24T07:59:32;95068.44;;;19.53;51.85
55466;BME280;41329;41.594;23.810;2023-05-24T08:01:57;95081.75;;;19.84;52.75
55466;BME280;41329;41.594;23.810;2023-05-24T08:04:28;95079.06;;;19.97;51.16
55466;BME280;41329;41.594;23.810;2023-05-24T08:06:54;95089.88;;;20.14;52.86
55466;BME280;41329;41.594;23.810;2023-05-24T08:09:19;95076.06;;;20.36;53.18
55466;BME280;41329;41.594;23.810;2023-05-24T08:11:46;95079.69;;;20.36;51.11
55466;BME280;41329;41.594;23.810;2023-05-24T08:14:11;95081.97;;;20.41;53.55
55466;BME280;41329;41.594;23.810;2023-05-24T08:16:37;95079.63;;;20.68;53.91
55466;BME280;41329;41.594;23.810;2023-05-24T08:19:02;95077.13;;;20.86;52.42
55466;BME280;41329;41.594;23.810;2023-05-24T08:21:29;95075.78;;;21.07;52.91
55466;BME280;41329;41.594;23.810;2023-05-24T08:23:54;95084.31;;;21.44;55.46
55466;BME280;41329;41.594;23.810;2023-05-24T08:26:21;95071.50;;;21.68;50.17
55466;BME280;41329;41.594;23.810;2023-05-24T08:28:46;95078.72;;;21.57;49.90
55466;BME280;41329;41.594;23.810;2023-05-24T08:31:12;95076.44;;;21.52;48.95
55466;BME280;41329;41.594;23.810;2023-05-24T08:33:37;95048.16;;;21.30;49.87
55466;BME280;41329;41.594;23.810;2023-05-24T08:36:03;95071.25;;;21.63;51.25
55466;BME280;41329;41.594;23.810;2023-05-24T08:38:28;95004.34;;;21.42;52.04
55466;BME280;41329;41.594;23.810;2023-05-24T08:40:54;95076.06;;;21.91;50.32
55466;BME280;41329;41.594;23.810;2023-05-24T08:43:20;95070.88;;;22.02;50.36
55466;BME280;41329;41.594;23.810;2023-05-24T08:45:46;95068.75;;;22.06;47.51
55466;BME280;41329;41.594;23.810;2023-05-24T08:48:13;95064.56;;;22.23;47.37
55466;BME280;41329;41.594;23.810;2023-05-24T08:50:39;95075.88;;;22.44;49.75
55466;BME280;41329;41.594;23.810;2023-05-24T08:53:08;95061.34;;;22.58;48.86
55466;BME280;41329;41.594;23.810;2023-05-24T08:55:35;95069.00;;;22.58;44.41
55466;BME280;41329;41.594;23.810;2023-05-24T08:58:02;95075.63;;;22.76;44.73
55466;BME280;41329;41.594;23.810;2023-05-24T09:00:29;95059.06;;;22.66;44.13
55466;BME280;41329;41.594;23.810;2023-05-24T09:02:56;95070.41;;;22.88;44.36
55466;BME280;41329;41.594;23.810;2023-05-24T09:05:21;95066.66;;;23.12;45.71
55466;BME280;41329;41.594;23.810;2023-05-24T09:07:49;95068.53;;;23.28;43.82
55466;BME280;41329;41.594;23.810;2023-05-24T09:10:18;95049.47;;;23.19;40.22
55466;BME280;41329;41.594;23.810;2023-05-24T09:12:47;95057.69;;;23.26;40.77
55466;BME280;41329;41.594;23.810;2023-05-24T09:15:15;95069.13;;;23.44;40.67
55466;BME280;41329;41.594;23.810;2023-05-24T09:17:41;95061.47;;;23.54;37.63
55466;BME280;41329;41.594;23.810;2023-05-24T09:20:06;95065.16;;;23.63;37.75
55466;BME280;41329;41.594;23.810;2023-05-24T09:22:35;95047.41;;;23.63;37.91
55466;BME280;41329;41.594;23.810;2023-05-24T09:25:03;95053.03;;;23.84;38.66
55466;BME280;41329;41.594;23.810;2023-05-24T09:27:31;95060.03;;;24.01;34.73
55466;BME280;41329;41.594;23.810;2023-05-24T09:29:57;95025.47;;;23.67;34.26
55466;BME280;41329;41.594;23.810;2023-05-24T09:32:23;95059.09;;;24.04;34.64
55466;BME280;41329;41.594;23.810;2023-05-24T09:34:51;95054.16;;;24.26;36.61
55466;BME280;41329;41.594;23.810;2023-05-24T09:37:19;95073.88;;;24.48;37.94
55466;BME280;41329;41.594;23.810;2023-05-24T09:39:46;95045.13;;;24.49;34.79
55466;BME280;41329;41.594;23.810;2023-05-24T09:42:16;95063.84;;;24.56;36.15
55466;BME280;41329;41.594;23.810;2023-05-24T09:44:46;95057.13;;;24.71;34.10
55466;BME280;41329;41.594;23.810;2023-05-24T09:47:12;95037.41;;;24.59;33.32
55466;BME280;41329;41.594;23.810;2023-05-24T09:49:37;95057.31;;;24.86;34.85
55466;BME280;41329;41.594;23.810;2023-05-24T09:52:03;95064.22;;;24.94;30.35
55466;BME280;41329;41.594;23.810;2023-05-24T09:54:31;95058.38;;;24.70;30.89
55466;BME280;41329;41.594;23.810;2023-05-24T09:56:59;95068.28;;;24.66;31.86
55466;BME280;41329;41.594;23.810;2023-05-24T09:59:26;95064.03;;;24.70;27.92
55466;BME280;41329;41.594;23.810;2023-05-24T10:01:56;95051.25;;;24.57;29.17
55466;BME280;41329;41.594;23.810;2023-05-24T10:04:34;95056.66;;;24.73;30.41
55466;BME280;41329;41.594;23.810;2023-05-24T10:06:59;95051.63;;;24.95;34.42
55466;BME280;41329;41.594;23.810;2023-05-24T10:09:28;95054.97;;;25.29;33.49
55466;BME280;41329;41.594;23.810;2023-05-24T10:12:00;95039.97;;;25.47;31.66
55466;BME280;41329;41.594;23.810;2023-05-24T10:14:31;95052.72;;;25.51;33.18
55466;BME280;41329;41.594;23.810;2023-05-24T10:16:57;95054.28;;;25.61;34.74
55466;BME280;41329;41.594;23.810;2023-05-24T10:19:22;95032.88;;;25.60;33.33
55466;BME280;41329;41.594;23.810;2023-05-24T10:21:48;95032.16;;;25.92;35.75
55466;BME280;41329;41.594;23.810;2023-05-24T10:24:15;95051.53;;;26.35;32.98
55466;BME280;41329;41.594;23.810;2023-05-24T10:26:42;95045.41;;;26.60;33.94
55466;BME280;41329;41.594;23.810;2023-05-24T10:29:10;95033.44;;;26.56;31.87
55466;BME280;41329;41.594;23.810;2023-05-24T10:31:42;95054.78;;;26.75;32.20
55466;BME280;41329;41.594;23.810;2023-05-24T10:34:09;95036.69;;;26.40;30.44
55466;BME280;41329;41.594;23.810;2023-05-24T10:36:35;95023.28;;;26.41;33.77
55466;BME280;41329;41.594;23.810;2023-05-24T10:39:01;95053.47;;;26.85;32.71
55466;BME280;41329;41.594;23.810;2023-05-24T10:41:28;95051.63;;;26.97;32.47
55466;BME280;41329;41.594;23.810;2023-05-24T10:43:53;95054.94;;;26.95;32.19
55466;BME280;41329;41.594;23.810;2023-05-24T10:46:19;95048.44;;;26.80;32.34
55466;BME280;41329;41.594;23.810;2023-05-24T10:48:58;95039.09;;;26.33;32.66
55466;BME280;41329;41.594;23.810;2023-05-24T10:51:29;95039.38;;;26.02;33.21
55466;BME280;41329;41.594;23.810;2023-05-24T10:53:57;95036.13;;;25.95;33.71
55466;BME280;41329;41.594;23.810;2023-05-24T10:56:23;95036.94;;;25.68;33.45
55466;BME280;41329;41.594;23.810;2023-05-24T11:01:29;95044.53;;;25.44;32.87
55466;BME280;41329;41.594;23.810;2023-05-24T11:04:11;95047.22;;;25.39;33.13
55466;BME280;41329;41.594;23.810;2023-05-24T11:06:49;95043.00;;;25.25;34.27
55466;BME280;41329;41.594;23.810;2023-05-24T11:09:18;95029.16;;;25.09;34.32
55466;BME280;41329;41.594;23.810;2023-05-24T11:11:53;95032.00;;;25.00;34.48
55466;BME280;41329;41.594;23.810;2023-05-24T11:14:26;95020.34;;;24.71;34.36
55466;BME280;41329;41.594;23.810;2023-05-24T11:16:54;95012.75;;;24.59;35.39
55466;BME280;41329;41.594;23.810;2023-05-24T11:19:21;95004.59;;;24.61;35.73
55466;BME280;41329;41.594;23.810;2023-05-24T11:21:49;95038.03;;;24.54;36.16
55466;BME280;41329;41.594;23.810;2023-05-24T11:24:16;95042.31;;;24.58;36.05
55466;BME280;41329;41.594;23.810;2023-05-24T11:26:43;95039.91;;;24.39;35.97
55466;BME280;41329;41.594;23.810;2023-05-24T11:29:08;95030.34;;;24.45;36.58
55466;BME280;41329;41.594;23.810;2023-05-24T11:31:34;95026.72;;;24.45;36.03
55466;BME280;41329;41.594;23.810;2023-05-24T11:34:08;95025.47;;;24.55;37.12
55466;BME280;41329;41.594;23.810;2023-05-24T11:36:34;95025.53;;;24.64;37.11
55466;BME280;41329;41.594;23.810;2023-05-24T11:39:00;95022.84;;;24.69;36.38
55466;BME280;41329;41.594;23.810;2023-05-24T11:41:26;95020.00;;;24.78;35.86
55466;BME280;41329;41.594;23.810;2023-05-24T11:43:52;95016.13;;;24.85;36.53
55466;BME280;41329;41.594;23.810;2023-05-24T11:46:18;95022.53;;;24.85;35.92
55466;BME280;41329;41.594;23.810;2023-05-24T11:48:56;95018.16;;;24.84;35.96
55466;BME280;41329;41.594;23.810;2023-05-24T11:51:30;95023.63;;;24.79;35.16
55466;BME280;41329;41.594;23.810;2023-05-24T11:53:56;95017.03;;;24.82;35.21
55466;BME280;41329;41.594;23.810;2023-05-24T11:56:23;95013.09;;;24.97;36.03
55466;BME280;41329;41.594;23.810;2023-05-24T11:58:49;95012.19;;;25.00;35.90
55466;BME280;41329;41.594;23.810;2023-05-24T12:01:26;95002.56;;;24.62;34.27
55466;BME280;41329;41.594;23.810;2023-05-24T12:03:52;94998.00;;;24.64;35.96
55466;BME280;41329;41.594;23.810;2023-05-24T12:06:19;95011.06;;;25.07;37.54
55466;BME280;41329;41.594;23.810;2023-05-24T12:08:46;95003.00;;;25.23;34.19
55466;BME280;41329;41.594;23.810;2023-05-24T12:11:12;94998.59;;;25.40;34.92
55466;BME280;41329;41.594;23.810;2023-05-24T12:13:38;94987.25;;;25.58;33.00
55466;BME280;41329;41.594;23.810;2023-05-24T12:16:05;94983.59;;;25.67;31.24
55466;BME280;41329;41.594;23.810;2023-05-24T12:18:30;94977.25;;;25.72;32.84
55466;BME280;41329;41.594;23.810;2023-05-24T12:20:56;95004.69;;;26.07;30.95
55466;BME280;41329;41.594;23.810;2023-05-24T12:23:23;94996.13;;;25.84;29.04
55466;BME280;41329;41.594;23.810;2023-05-24T12:25:49;94988.41;;;25.84;30.06
55466;BME280;41329;41.594;23.810;2023-05-24T12:28:18;94990.97;;;25.73;30.69
55466;BME280;41329;41.594;23.810;2023-05-24T12:30:48;94985.22;;;25.50;30.66
55466;BME280;41329;41.594;23.810;2023-05-24T12:33:14;94974.56;;;25.27;30.13
55466;BME280;41329;41.594;23.810;2023-05-24T12:35:40;94969.53;;;25.13;30.74
55466;BME280;41329;41.594;23.810;2023-05-24T12:38:10;94992.50;;;25.15;31.11
55466;BME280;41329;41.594;23.810;2023-05-24T12:40:35;94990.00;;;24.99;31.34
55466;BME280;41329;41.594;23.810;2023-05-24T12:43:03;94988.56;;;25.03;32.61
55466;BME280;41329;41.594;23.810;2023-05-24T12:45:29;94980.09;;;25.12;34.10
55466;BME280;41329;41.594;23.810;2023-05-24T12:47:55;94983.69;;;25.13;33.96
55466;BME280;41329;41.594;23.810;2023-05-24T12:50:23;94968.25;;;25.14;33.92
55466;BME280;41329;41.594;23.810;2023-05-24T12:52:49;94984.47;;;25.13;33.80
55466;BME280;41329;41.594;23.810;2023-05-24T12:55:20;94967.50;;;25.13;33.74
55466;BME280;41329;41.594;23.810;2023-05-24T12:57:46;94981.16;;;25.24;34.56
55466;BME280;41329;41.594;23.810;2023-05-24T13:00:20;94979.44;;;25.35;33.79